CZ-0138 weather

Loučeň Airstrip
Loučeň, Central Bohemian Region, Czech Republic

Public forecast

Using degrees Celsius for public forecast. Weather courtesy of forecast.io.

Closest aviation weather report (METAR) to Loučeň Airstrip

Closest report is Kbely Air Base, 22.0 nm (40.8 km) WSW. Retrieved 2019/11/17 03:00 UTC (46 minutes ago):

LKKB 170300Z 03003KT CAVOK 05/03 Q1013

Closest aviation forecast (TAF) to Loučeň Airstrip

Closest forecast is Kbely Air Base, 22.0 nm (40.8 km) WSW. Retrieved 2019-11-17 00:00 UTC (4 hours ago):

TAF LKKB 162300Z 1700/1800 VRB02KT CAVOK BECMG 1700/1702 08006KT SCT035 BKN050 TEMPO 1701/1709 7000 RA BKN015 OVC040 BECMG 1708/1710 12012G25KT BECMG 1710/1712 CAVOK TEMPO 1714/1800 15018G32KT